sensor_id;sensor_type;location;lat;lon;timestamp;temperature;humidity
5631;DHT22;2837;50.990;7.124;2022-07-10T05:01:15;17.50;99.90
5631;DHT22;2837;50.990;7.124;2022-07-10T05:03:41;17.60;99.90
5631;DHT22;2837;50.990;7.124;2022-07-10T05:06:06;17.60;99.90
5631;DHT22;2837;50.990;7.124;2022-07-10T05:08:32;17.60;99.90
5631;DHT22;2837;50.990;7.124;2022-07-10T05:10:57;17.60;99.90
5631;DHT22;2837;50.990;7.124;2022-07-10T05:13:23;17.70;99.90
5631;DHT22;2837;50.990;7.124;2022-07-10T05:15:48;17.70;99.90
5631;DHT22;2837;50.990;7.124;2022-07-10T05:18:15;17.80;99.90
5631;DHT22;2837;50.990;7.124;2022-07-10T05:20:41;17.70;99.90
5631;DHT22;2837;50.990;7.124;2022-07-10T05:23:07;17.70;99.90
5631;DHT22;2837;50.990;7.124;2022-07-10T05:25:32;17.70;99.90
5631;DHT22;2837;50.990;7.124;2022-07-10T05:27:58;17.60;99.90
5631;DHT22;2837;50.990;7.124;2022-07-10T05:30:23;17.70;99.90
5631;DHT22;2837;50.990;7.124;2022-07-10T05:32:49;17.70;99.90
5631;DHT22;2837;50.990;7.124;2022-07-10T05:35:15;17.80;99.90
5631;DHT22;2837;50.990;7.124;2022-07-10T05:37:41;17.80;99.90
5631;DHT22;2837;50.990;7.124;2022-07-10T05:40:07;17.70;99.90
5631;DHT22;2837;50.990;7.124;2022-07-10T05:42:34;17.80;99.90
5631;DHT22;2837;50.990;7.124;2022-07-10T05:44:59;17.80;99.90
5631;DHT22;2837;50.990;7.124;2022-07-10T05:47:25;17.80;99.90
5631;DHT22;2837;50.990;7.124;2022-07-10T05:49:51;17.90;99.90
5631;DHT22;2837;50.990;7.124;2022-07-10T05:52:16;17.90;99.90
5631;DHT22;2837;50.990;7.124;2022-07-10T05:54:42;18.00;99.90
5631;DHT22;2837;50.990;7.124;2022-07-10T05:57:07;18.00;99.90
5631;DHT22;2837;50.990;7.124;2022-07-10T05:59:34;18.00;99.90
5631;DHT22;2837;50.990;7.124;2022-07-10T06:02:00;18.10;99.90
5631;DHT22;2837;50.990;7.124;2022-07-10T06:04:26;18.10;99.90
5631;DHT22;2837;50.990;7.124;2022-07-10T06:06:51;18.10;99.90
5631;DHT22;2837;50.990;7.124;2022-07-10T06:09:17;18.20;99.90
5631;DHT22;2837;50.990;7.124;2022-07-10T06:11:43;18.10;99.90
5631;DHT22;2837;50.990;7.124;2022-07-10T06:14:11;18.20;99.90
5631;DHT22;2837;50.990;7.124;2022-07-10T06:16:37;18.20;99.90
5631;DHT22;2837;50.990;7.124;2022-07-10T06:19:02;18.20;99.90
5631;DHT22;2837;50.990;7.124;2022-07-10T06:21:28;18.20;99.90
5631;DHT22;2837;50.990;7.124;2022-07-10T06:23:54;18.20;99.90
5631;DHT22;2837;50.990;7.124;2022-07-10T06:26:19;18.30;99.90
5631;DHT22;2837;50.990;7.124;2022-07-10T06:28:45;18.30;99.90
5631;DHT22;2837;50.990;7.124;2022-07-10T06:31:10;18.20;99.90
5631;DHT22;2837;50.990;7.124;2022-07-10T06:33:37;18.20;99.90
5631;DHT22;2837;50.990;7.124;2022-07-10T06:36:03;18.10;99.90
5631;DHT22;2837;50.990;7.124;2022-07-10T06:38:29;18.10;99.90
5631;DHT22;2837;50.990;7.124;2022-07-10T06:40:54;18.10;99.90
5631;DHT22;2837;50.990;7.124;2022-07-10T06:43:20;18.10;99.90
5631;DHT22;2837;50.990;7.124;2022-07-10T06:45:45;18.10;99.90
5631;DHT22;2837;50.990;7.124;2022-07-10T06:48:11;18.00;99.90
5631;DHT22;2837;50.990;7.124;2022-07-10T06:50:37;18.00;99.90
5631;DHT22;2837;50.990;7.124;2022-07-10T06:53:03;18.00;99.90
5631;DHT22;2837;50.990;7.124;2022-07-10T06:55:30;18.00;99.90
5631;DHT22;2837;50.990;7.124;2022-07-10T06:57:56;18.10;99.90
5631;DHT22;2837;50.990;7.124;2022-07-10T07:00:22;18.20;99.90
5631;DHT22;2837;50.990;7.124;2022-07-10T07:02:48;18.20;99.90
5631;DHT22;2837;50.990;7.124;2022-07-10T07:05:13;18.30;99.90
5631;DHT22;2837;50.990;7.124;2022-07-10T07:07:39;18.20;99.90
5631;DHT22;2837;50.990;7.124;2022-07-10T07:10:05;18.20;99.90
5631;DHT22;2837;50.990;7.124;2022-07-10T07:12:31;18.30;99.90
5631;DHT22;2837;50.990;7.124;2022-07-10T07:14:57;18.20;99.90
5631;DHT22;2837;50.990;7.124;2022-07-10T07:17:22;18.30;99.90
5631;DHT22;2837;50.990;7.124;2022-07-10T07:19:51;18.20;99.90
5631;DHT22;2837;50.990;7.124;2022-07-10T07:22:35;18.20;99.90
5631;DHT22;2837;50.990;7.124;2022-07-10T07:25:19;18.30;99.90
5631;DHT22;2837;50.990;7.124;2022-07-10T07:27:45;18.30;99.90
5631;DHT22;2837;50.990;7.124;2022-07-10T07:30:13;18.30;99.90
5631;DHT22;2837;50.990;7.124;2022-07-10T07:32:43;18.30;99.90
5631;DHT22;2837;50.990;7.124;2022-07-10T07:35:10;18.30;99.90
5631;DHT22;2837;50.990;7.124;2022-07-10T07:37:40;18.30;99.90
5631;DHT22;2837;50.990;7.124;2022-07-10T07:40:14;18.30;99.90
5631;DHT22;2837;50.990;7.124;2022-07-10T07:42:40;18.30;99.90
5631;DHT22;2837;50.990;7.124;2022-07-10T07:45:07;18.30;99.90
5631;DHT22;2837;50.990;7.124;2022-07-10T07:50:10;18.30;99.90
5631;DHT22;2837;50.990;7.124;2022-07-10T07:52:36;18.30;99.90
5631;DHT22;2837;50.990;7.124;2022-07-10T07:55:02;18.30;99.90
5631;DHT22;2837;50.990;7.124;2022-07-10T07:57:27;18.30;99.90
5631;DHT22;2837;50.990;7.124;2022-07-10T07:59:53;18.30;99.90
5631;DHT22;2837;50.990;7.124;2022-07-10T08:02:18;18.40;99.90
5631;DHT22;2837;50.990;7.124;2022-07-10T08:04:44;18.40;99.90
5631;DHT22;2837;50.990;7.124;2022-07-10T08:07:10;18.40;99.90
5631;DHT22;2837;50.990;7.124;2022-07-10T08:09:35;18.40;99.90
5631;DHT22;2837;50.990;7.124;2022-07-10T08:12:01;18.40;99.90
5631;DHT22;2837;50.990;7.124;2022-07-10T08:14:26;18.40;99.90
5631;DHT22;2837;50.990;7.124;2022-07-10T08:16:52;18.40;99.90
5631;DHT22;2837;50.990;7.124;2022-07-10T08:19:18;18.50;99.90
5631;DHT22;2837;50.990;7.124;2022-07-10T08:21:43;18.50;99.90
5631;DHT22;2837;50.990;7.124;2022-07-10T08:24:09;18.50;99.90
5631;DHT22;2837;50.990;7.124;2022-07-10T08:26:35;18.40;99.90
5631;DHT22;2837;50.990;7.124;2022-07-10T08:29:00;18.40;99.90
5631;DHT22;2837;50.990;7.124;2022-07-10T08:31:26;18.40;99.90
5631;DHT22;2837;50.990;7.124;2022-07-10T08:33:51;18.40;99.90
5631;DHT22;2837;50.990;7.124;2022-07-10T08:36:18;18.40;99.90
5631;DHT22;2837;50.990;7.124;2022-07-10T08:38:43;18.50;99.90
5631;DHT22;2837;50.990;7.124;2022-07-10T08:41:09;18.50;99.90
5631;DHT22;2837;50.990;7.124;2022-07-10T08:43:36;18.50;99.90
5631;DHT22;2837;50.990;7.124;2022-07-10T08:46:02;18.50;99.90
5631;DHT22;2837;50.990;7.124;2022-07-10T08:48:32;18.50;99.90
5631;DHT22;2837;50.990;7.124;2022-07-10T08:51:04;18.50;99.90
5631;DHT22;2837;50.990;7.124;2022-07-10T08:53:32;18.40;99.90
5631;DHT22;2837;50.990;7.124;2022-07-10T08:55:58;18.40;99.90
5631;DHT22;2837;50.990;7.124;2022-07-10T08:58:24;18.40;99.90
5631;DHT22;2837;50.990;7.124;2022-07-10T09:00:51;18.40;99.90
5631;DHT22;2837;50.990;7.124;2022-07-10T09:03:16;18.40;99.90
5631;DHT22;2837;50.990;7.124;2022-07-10T09:05:42;18.40;99.90
5631;DHT22;2837;50.990;7.124;2022-07-10T09:08:27;18.40;99.90
5631;DHT22;2837;50.990;7.124;2022-07-10T09:11:18;18.40;99.90
5631;DHT22;2837;50.990;7.124;2022-07-10T09:13:54;18.40;99.90
5631;DHT22;2837;50.990;7.124;2022-07-10T09:16:24;18.50;99.90
5631;DHT22;2837;50.990;7.124;2022-07-10T09:18:50;18.50;99.90
5631;DHT22;2837;50.990;7.124;2022-07-10T09:21:16;18.50;99.90
5631;DHT22;2837;50.990;7.124;2022-07-10T09:23:42;18.50;99.90
5631;DHT22;2837;50.990;7.124;2022-07-10T09:26:07;18.50;99.90
5631;DHT22;2837;50.990;7.124;2022-07-10T09:28:33;18.50;99.90
5631;DHT22;2837;50.990;7.124;2022-07-10T09:30:58;18.50;99.90
5631;DHT22;2837;50.990;7.124;2022-07-10T09:33:29;18.60;99.90
5631;DHT22;2837;50.990;7.124;2022-07-10T09:41:26;18.70;99.90
5631;DHT22;2837;50.990;7.124;2022-07-10T09:44:08;18.70;99.90
5631;DHT22;2837;50.990;7.124;2022-07-10T09:46:38;18.70;99.90
5631;DHT22;2837;50.990;7.124;2022-07-10T09:49:09;18.70;99.90
5631;DHT22;2837;50.990;7.124;2022-07-10T09:51:40;18.70;99.90
5631;DHT22;2837;50.990;7.124;2022-07-10T09:54:07;18.70;99.90
5631;DHT22;2837;50.990;7.124;2022-07-10T09:56:45;18.80;99.90
5631;DHT22;2837;50.990;7.124;2022-07-10T10:01:49;18.70;99.90
5631;DHT22;2837;50.990;7.124;2022-07-10T10:04:17;18.70;99.90
5631;DHT22;2837;50.990;7.124;2022-07-10T10:06:46;18.70;99.90
5631;DHT22;2837;50.990;7.124;2022-07-10T10:09:23;18.70;99.90
5631;DHT22;2837;50.990;7.124;2022-07-10T10:11:59;18.60;99.90
5631;DHT22;2837;50.990;7.124;2022-07-10T10:14:28;18.60;99.90
5631;DHT22;2837;50.990;7.124;2022-07-10T10:16:55;18.60;99.90
5631;DHT22;2837;50.990;7.124;2022-07-10T10:19:23;18.60;99.90
5631;DHT22;2837;50.990;7.124;2022-07-10T10:22:08;18.50;99.90
5631;DHT22;2837;50.990;7.124;2022-07-10T10:24:34;18.50;99.90
5631;DHT22;2837;50.990;7.124;2022-07-10T10:27:02;18.50;99.90
5631;DHT22;2837;50.990;7.124;2022-07-10T10:29:30;18.50;99.90
5631;DHT22;2837;50.990;7.124;2022-07-10T10:31:56;18.50;99.90
5631;DHT22;2837;50.990;7.124;2022-07-10T10:34:41;18.50;99.90
5631;DHT22;2837;50.990;7.124;2022-07-10T10:39:56;18.50;99.90
5631;DHT22;2837;50.990;7.124;2022-07-10T10:42:41;18.50;99.90
5631;DHT22;2837;50.990;7.124;2022-07-10T10:45:33;18.50;99.90
5631;DHT22;2837;50.990;7.124;2022-07-10T10:48:05;18.50;99.90
5631;DHT22;2837;50.990;7.124;2022-07-10T10:50:53;18.50;99.90
5631;DHT22;2837;50.990;7.124;2022-07-10T10:53:26;18.50;99.90
5631;DHT22;2837;50.990;7.124;2022-07-10T10:58:38;18.50;99.90
5631;DHT22;2837;50.990;7.124;2022-07-10T11:01:28;18.50;99.90
5631;DHT22;2837;50.990;7.124;2022-07-10T11:09:25;18.50;99.90
5631;DHT22;2837;50.990;7.124;2022-07-10T11:14:38;18.50;99.90
5631;DHT22;2837;50.990;7.124;2022-07-10T11:17:05;18.50;99.90
5631;DHT22;2837;50.990;7.124;2022-07-10T11:19:32;18.60;99.90
5631;DHT22;2837;50.990;7.124;2022-07-10T11:24:55;18.60;99.90
5631;DHT22;2837;50.990;7.124;2022-07-10T11:30:03;18.70;99.90
5631;DHT22;2837;50.990;7.124;2022-07-10T11:32:28;18.70;99.90
5631;DHT22;2837;50.990;7.124;2022-07-10T11:34:55;18.70;99.90
5631;DHT22;2837;50.990;7.124;2022-07-10T11:37:21;18.70;99.90
5631;DHT22;2837;50.990;7.124;2022-07-10T11:39:47;18.80;99.90
5631;DHT22;2837;50.990;7.124;2022-07-10T11:42:13;18.70;99.90
5631;DHT22;2837;50.990;7.124;2022-07-10T11:44:38;18.70;99.90
5631;DHT22;2837;50.990;7.124;2022-07-10T11:47:04;18.70;99.90
5631;DHT22;2837;50.990;7.124;2022-07-10T11:49:30;18.70;99.90
5631;DHT22;2837;50.990;7.124;2022-07-10T11:52:02;18.60;99.90
5631;DHT22;2837;50.990;7.124;2022-07-10T11:54:28;18.60;99.90
5631;DHT22;2837;50.990;7.124;2022-07-10T11:56:54;18.60;99.90
5631;DHT22;2837;50.990;7.124;2022-07-10T11:59:27;18.60;99.90
5631;DHT22;2837;50.990;7.124;2022-07-10T12:01:56;18.70;99.90
5631;DHT22;2837;50.990;7.124;2022-07-10T12:04:25;18.70;99.90
5631;DHT22;2837;50.990;7.124;2022-07-10T12:06:52;18.60;99.90
5631;DHT22;2837;50.990;7.124;2022-07-10T12:09:22;18.70;99.90
5631;DHT22;2837;50.990;7.124;2022-07-10T12:12:07;18.70;99.90
5631;DHT22;2837;50.990;7.124;2022-07-10T12:14:34;18.80;99.90
5631;DHT22;2837;50.990;7.124;2022-07-10T12:17:00;18.80;99.90
5631;DHT22;2837;50.990;7.124;2022-07-10T12:19:32;18.80;99.90
5631;DHT22;2837;50.990;7.124;2022-07-10T12:22:02;18.70;99.90
5631;DHT22;2837;50.990;7.124;2022-07-10T12:24:29;18.70;99.90
5631;DHT22;2837;50.990;7.124;2022-07-10T12:26:55;18.70;99.90
5631;DHT22;2837;50.990;7.124;2022-07-10T12:29:21;18.60;99.90
5631;DHT22;2837;50.990;7.124;2022-07-10T12:31:49;18.70;99.90
5631;DHT22;2837;50.990;7.124;2022-07-10T12:34:15;18.80;99.90
5631;DHT22;2837;50.990;7.124;2022-07-10T12:39:14;18.80;99.90
5631;DHT22;2837;50.990;7.124;2022-07-10T12:41:59;18.80;99.90
5631;DHT22;2837;50.990;7.124;2022-07-10T12:44:46;18.80;99.90
5631;DHT22;2837;50.990;7.124;2022-07-10T12:47:16;18.70;99.90
5631;DHT22;2837;50.990;7.124;2022-07-10T12:50:05;18.70;99.90
5631;DHT22;2837;50.990;7.124;2022-07-10T12:52:33;18.70;99.90
5631;DHT22;2837;50.990;7.124;2022-07-10T12:55:10;18.60;99.90
5631;DHT22;2837;50.990;7.124;2022-07-10T13:02:48;18.60;99.90
5631;DHT22;2837;50.990;7.124;2022-07-10T13:05:32;18.60;99.90
5631;DHT22;2837;50.990;7.124;2022-07-10T13:08:09;18.60;99.90
5631;DHT22;2837;50.990;7.124;2022-07-10T13:10:49;18.70;99.90
5631;DHT22;2837;50.990;7.124;2022-07-10T13:13:16;18.70;99.90
5631;DHT22;2837;50.990;7.124;2022-07-10T13:15:42;18.70;99.90
5631;DHT22;2837;50.990;7.124;2022-07-10T13:18:26;18.70;99.90
5631;DHT22;2837;50.990;7.124;2022-07-10T13:20:56;18.70;99.90
5631;DHT22;2837;50.990;7.124;2022-07-10T13:23:23;18.80;99.90
5631;DHT22;2837;50.990;7.124;2022-07-10T13:25:51;18.80;99.90
5631;DHT22;2837;50.990;7.124;2022-07-10T13:28:17;18.80;99.90
5631;DHT22;2837;50.990;7.124;2022-07-10T13:30:44;18.80;99.90
5631;DHT22;2837;50.990;7.124;2022-07-10T13:33:09;18.80;99.90
5631;DHT22;2837;50.990;7.124;2022-07-10T13:35:36;18.70;99.90
5631;DHT22;2837;50.990;7.124;2022-07-10T13:38:03;18.60;99.90
5631;DHT22;2837;50.990;7.124;2022-07-10T13:40:34;18.60;99.90
5631;DHT22;2837;50.990;7.124;2022-07-10T13:43:00;18.60;99.90
5631;DHT22;2837;50.990;7.124;2022-07-10T13:45:27;18.60;99.90
5631;DHT22;2837;50.990;7.124;2022-07-10T13:47:57;18.60;99.90
5631;DHT22;2837;50.990;7.124;2022-07-10T13:50:23;18.60;99.90
5631;DHT22;2837;50.990;7.124;2022-07-10T13:52:50;18.70;99.90
5631;DHT22;2837;50.990;7.124;2022-07-10T13:55:16;18.60;99.90
5631;DHT22;2837;50.990;7.124;2022-07-10T13:57:42;18.60;99.90
5631;DHT22;2837;50.990;7.124;2022-07-10T14:00:08;18.60;99.90
5631;DHT22;2837;50.990;7.124;2022-07-10T14:02:34;18.60;99.90
5631;DHT22;2837;50.990;7.124;2022-07-10T14:05:00;18.60;99.90
5631;DHT22;2837;50.990;7.124;2022-07-10T14:07:25;18.70;99.90
5631;DHT22;2837;50.990;7.124;2022-07-10T14:09:51;18.70;99.90
5631;DHT22;2837;50.990;7.124;2022-07-10T14:12:17;18.80;99.90
5631;DHT22;2837;50.990;7.124;2022-07-10T14:14:42;18.80;99.90
5631;DHT22;2837;50.990;7.124;2022-07-10T14:17:08;18.80;99.90
5631;DHT22;2837;50.990;7.124;2022-07-10T14:19:34;18.90;99.90
5631;DHT22;2837;50.990;7.124;2022-07-10T14:21:59;19.00;99.90
5631;DHT22;2837;50.990;7.124;2022-07-10T14:24:25;19.00;99.90
5631;DHT22;2837;50.990;7.124;2022-07-10T14:26:52;19.00;99.90
5631;DHT22;2837;50.990;7.124;2022-07-10T14:29:19;19.10;99.90
5631;DHT22;2837;50.990;7.124;2022-07-10T14:31:45;19.10;99.90
5631;DHT22;2837;50.990;7.124;2022-07-10T14:34:17;19.10;99.90
5631;DHT22;2837;50.990;7.124;2022-07-10T14:36:42;19.20;99.90
5631;DHT22;2837;50.990;7.124;2022-07-10T14:39:08;19.20;99.90
5631;DHT22;2837;50.990;7.124;2022-07-10T14:41:34;19.20;99.90
5631;DHT22;2837;50.990;7.124;2022-07-10T14:43:59;19.20;99.90
5631;DHT22;2837;50.990;7.124;2022-07-10T14:46:25;19.30;99.90
5631;DHT22;2837;50.990;7.124;2022-07-10T14:48:50;19.30;99.90
5631;DHT22;2837;50.990;7.124;2022-07-10T14:51:17;19.30;99.90
5631;DHT22;2837;50.990;7.124;2022-07-10T14:53:43;19.30;99.90
5631;DHT22;2837;50.990;7.124;2022-07-10T14:56:10;19.30;99.90
5631;DHT22;2837;50.990;7.124;2022-07-10T14:58:36;19.30;99.90
5631;DHT22;2837;50.990;7.124;2022-07-10T15:01:02;19.30;99.90
5631;DHT22;2837;50.990;7.124;2022-07-10T15:03:28;19.30;99.90
5631;DHT22;2837;50.990;7.124;2022-07-10T15:05:54;19.30;99.90
5631;DHT22;2837;50.990;7.124;2022-07-10T15:08:23;19.30;99.90
5631;DHT22;2837;50.990;7.124;2022-07-10T15:10:49;19.20;99.90
5631;DHT22;2837;50.990;7.124;2022-07-10T15:13:15;19.30;99.90
5631;DHT22;2837;50.990;7.124;2022-07-10T15:15:41;19.20;99.90
5631;DHT22;2837;50.990;7.124;2022-07-10T15:18:06;19.30;99.90
5631;DHT22;2837;50.990;7.124;2022-07-10T15:20:32;19.20;99.90
5631;DHT22;2837;50.990;7.124;2022-07-10T15:22:58;19.20;99.90
5631;DHT22;2837;50.990;7.124;2022-07-10T15:25:24;19.20;99.90
5631;DHT22;2837;50.990;7.124;2022-07-10T15:27:52;19.20;99.90
5631;DHT22;2837;50.990;7.124;2022-07-10T15:30:18;19.20;99.90
5631;DHT22;2837;50.990;7.124;2022-07-10T15:32:45;19.20;99.90
5631;DHT22;2837;50.990;7.124;2022-07-10T15:35:11;19.20;99.90
5631;DHT22;2837;50.990;7.124;2022-07-10T15:37:37;19.30;99.90
5631;DHT22;2837;50.990;7.124;2022-07-10T15:40:04;19.20;99.90
5631;DHT22;2837;50.990;7.124;2022-07-10T15:42:30;19.20;99.90
5631;DHT22;2837;50.990;7.124;2022-07-10T15:44:55;19.20;99.90
5631;DHT22;2837;50.990;7.124;2022-07-10T15:47:21;19.20;99.90
5631;DHT22;2837;50.990;7.124;2022-07-10T15:49:47;19.30;99.90
5631;DHT22;2837;50.990;7.124;2022-07-10T15:52:12;19.30;99.90
5631;DHT22;2837;50.990;7.124;2022-07-10T15:54:38;19.30;99.90
5631;DHT22;2837;50.990;7.124;2022-07-10T15:57:04;19.30;99.90
5631;DHT22;2837;50.990;7.124;2022-07-10T15:59:30;19.30;99.90
5631;DHT22;2837;50.990;7.124;2022-07-10T16:01:57;19.30;99.90
5631;DHT22;2837;50.990;7.124;2022-07-10T16:04:23;19.30;99.90
5631;DHT22;2837;50.990;7.124;2022-07-10T16:06:50;19.30;99.90
5631;DHT22;2837;50.990;7.124;2022-07-10T16:09:16;19.40;99.90
5631;DHT22;2837;50.990;7.124;2022-07-10T16:11:42;19.40;99.90
5631;DHT22;2837;50.990;7.124;2022-07-10T16:14:08;19.40;99.90
5631;DHT22;2837;50.990;7.124;2022-07-10T16:16:35;19.40;99.90
5631;DHT22;2837;50.990;7.124;2022-07-10T16:19:01;19.50;99.90
5631;DHT22;2837;50.990;7.124;2022-07-10T16:21:28;19.40;99.90
5631;DHT22;2837;50.990;7.124;2022-07-10T16:23:54;19.50;99.90
5631;DHT22;2837;50.990;7.124;2022-07-10T16:26:19;19.40;99.90
5631;DHT22;2837;50.990;7.124;2022-07-10T16:28:45;19.50;99.90
5631;DHT22;2837;50.990;7.124;2022-07-10T16:31:11;19.50;99.90
5631;DHT22;2837;50.990;7.124;2022-07-10T16:33:37;19.50;99.90
5631;DHT22;2837;50.990;7.124;2022-07-10T16:36:04;19.50;99.90
5631;DHT22;2837;50.990;7.124;2022-07-10T16:38:30;19.60;99.90
5631;DHT22;2837;50.990;7.124;2022-07-10T16:40:56;19.60;99.90
5631;DHT22;2837;50.990;7.124;2022-07-10T16:43:21;19.60;99.90
5631;DHT22;2837;50.990;7.124;2022-07-10T16:45:48;19.60;99.90
5631;DHT22;2837;50.990;7.124;2022-07-10T16:48:13;19.60;99.90
5631;DHT22;2837;50.990;7.124;2022-07-10T16:50:40;19.60;99.90
5631;DHT22;2837;50.990;7.124;2022-07-10T16:53:05;19.50;99.90
5631;DHT22;2837;50.990;7.124;2022-07-10T16:55:31;19.50;99.90
5631;DHT22;2837;50.990;7.124;2022-07-10T16:57:57;19.50;99.90
5631;DHT22;2837;50.990;7.124;2022-07-10T17:00:23;19.50;99.90
5631;DHT22;2837;50.990;7.124;2022-07-10T17:02:49;19.50;99.90
5631;DHT22;2837;50.990;7.124;2022-07-10T17:05:15;19.50;99.90
5631;DHT22;2837;50.990;7.124;2022-07-10T17:07:41;19.50;99.90
5631;DHT22;2837;50.990;7.124;2022-07-10T17:10:09;19.50;99.90
5631;DHT22;2837;50.990;7.124;2022-07-10T17:12:35;19.40;99.90
5631;DHT22;2837;50.990;7.124;2022-07-10T17:15:00;19.40;99.90
5631;DHT22;2837;50.990;7.124;2022-07-10T17:17:29;19.40;99.90
5631;DHT22;2837;50.990;7.124;2022-07-10T17:19:55;19.50;99.90
5631;DHT22;2837;50.990;7.124;2022-07-10T17:22:22;19.50;99.90
5631;DHT22;2837;50.990;7.124;2022-07-10T17:24:49;19.50;99.90
5631;DHT22;2837;50.990;7.124;2022-07-10T17:27:14;19.40;99.90
5631;DHT22;2837;50.990;7.124;2022-07-10T17:29:40;19.40;99.90
5631;DHT22;2837;50.990;7.124;2022-07-10T17:32:06;19.40;99.90
5631;DHT22;2837;50.990;7.124;2022-07-10T17:34:32;19.40;99.90
5631;DHT22;2837;50.990;7.124;2022-07-10T17:36:57;19.50;99.90
5631;DHT22;2837;50.990;7.124;2022-07-10T17:39:23;19.40;99.90
5631;DHT22;2837;50.990;7.124;2022-07-10T17:41:49;19.40;99.90
5631;DHT22;2837;50.990;7.124;2022-07-10T17:44:16;19.40;99.90
5631;DHT22;2837;50.990;7.124;2022-07-10T17:46:45;19.50;99.90
5631;DHT22;2837;50.990;7.124;2022-07-10T17:49:11;19.50;99.90
5631;DHT22;2837;50.990;7.124;2022-07-10T17:51:36;19.40;99.90
5631;DHT22;2837;50.990;7.124;2022-07-10T17:54:02;19.40;99.90
5631;DHT22;2837;50.990;7.124;2022-07-10T17:56:28;19.40;99.90
5631;DHT22;2837;50.990;7.124;2022-07-10T17:58:53;19.40;99.90
5631;DHT22;2837;50.990;7.124;2022-07-10T18:01:20;19.40;99.90
5631;DHT22;2837;50.990;7.124;2022-07-10T18:03:46;19.40;99.90
5631;DHT22;2837;50.990;7.124;2022-07-10T18:06:12;19.40;99.90
5631;DHT22;2837;50.990;7.124;2022-07-10T18:08:38;19.40;99.90
5631;DHT22;2837;50.990;7.124;2022-07-10T18:11:05;19.40;99.90
5631;DHT22;2837;50.990;7.124;2022-07-10T18:13:35;19.40;99.90
5631;DHT22;2837;50.990;7.124;2022-07-10T18:16:01;19.40;99.90
5631;DHT22;2837;50.990;7.124;2022-07-10T18:18:40;19.40;99.90
5631;DHT22;2837;50.990;7.124;2022-07-10T18:21:06;19.30;99.90
5631;DHT22;2837;50.990;7.124;2022-07-10T18:23:32;19.30;99.90
5631;DHT22;2837;50.990;7.124;2022-07-10T18:25:59;19.30;99.90
5631;DHT22;2837;50.990;7.124;2022-07-10T18:28:24;19.30;99.90
5631;DHT22;2837;50.990;7.124;2022-07-10T18:30:55;19.30;99.90
5631;DHT22;2837;50.990;7.124;2022-07-10T18:33:22;19.30;99.90
5631;DHT22;2837;50.990;7.124;2022-07-10T18:36:06;19.30;99.90
5631;DHT22;2837;50.990;7.124;2022-07-10T18:38:33;19.30;99.90
5631;DHT22;2837;50.990;7.124;2022-07-10T18:41:00;19.30;99.90
5631;DHT22;2837;50.990;7.124;2022-07-10T18:43:28;19.30;99.90
5631;DHT22;2837;50.990;7.124;2022-07-10T18:45:55;19.30;99.90
5631;DHT22;2837;50.990;7.124;2022-07-10T18:48:21;19.30;99.90
5631;DHT22;2837;50.990;7.124;2022-07-10T18:50:46;19.30;99.90
5631;DHT22;2837;50.990;7.124;2022-07-10T18:53:12;19.30;99.90
5631;DHT22;2837;50.990;7.124;2022-07-10T18:55:37;19.30;99.90
5631;DHT22;2837;50.990;7.124;2022-07-10T18:58:03;19.30;99.90
5631;DHT22;2837;50.990;7.124;2022-07-10T19:00:28;19.30;99.90
5631;DHT22;2837;50.990;7.124;2022-07-10T19:02:54;19.30;99.90
5631;DHT22;2837;50.990;7.124;2022-07-10T19:05:20;19.30;99.90
5631;DHT22;2837;50.990;7.124;2022-07-10T19:07:45;19.20;99.90
5631;DHT22;2837;50.990;7.124;2022-07-10T19:10:11;19.30;99.90
5631;DHT22;2837;50.990;7.124;2022-07-10T19:12:36;19.20;99.90
5631;DHT22;2837;50.990;7.124;2022-07-10T19:15:02;19.30;99.90
5631;DHT22;2837;50.990;7.124;2022-07-10T19:17:28;19.30;99.90
5631;DHT22;2837;50.990;7.124;2022-07-10T19:19:56;19.30;99.90
5631;DHT22;2837;50.990;7.124;2022-07-10T19:22:22;19.30;99.90
5631;DHT22;2837;50.990;7.124;2022-07-10T19:24:47;19.30;99.90
5631;DHT22;2837;50.990;7.124;2022-07-10T19:27:13;19.30;99.90
5631;DHT22;2837;50.990;7.124;2022-07-10T19:29:39;19.30;99.90
5631;DHT22;2837;50.990;7.124;2022-07-10T19:32:04;19.30;99.90
5631;DHT22;2837;50.990;7.124;2022-07-10T19:34:31;19.30;99.90
5631;DHT22;2837;50.990;7.124;2022-07-10T19:36:57;19.20;99.90
5631;DHT22;2837;50.990;7.124;2022-07-10T19:39:22;19.30;99.90
5631;DHT22;2837;50.990;7.124;2022-07-10T19:41:48;19.20;99.90
5631;DHT22;2837;50.990;7.124;2022-07-10T19:44:13;19.20;99.90
5631;DHT22;2837;50.990;7.124;2022-07-10T19:46:39;19.20;99.90
5631;DHT22;2837;50.990;7.124;2022-07-10T19:49:05;19.20;99.90
5631;DHT22;2837;50.990;7.124;2022-07-10T19:51:31;19.20;99.90
5631;DHT22;2837;50.990;7.124;2022-07-10T19:53:56;19.20;99.90
5631;DHT22;2837;50.990;7.124;2022-07-10T19:56:22;19.20;99.90
5631;DHT22;2837;50.990;7.124;2022-07-10T19:58:48;19.20;99.90
5631;DHT22;2837;50.990;7.124;2022-07-10T20:01:13;19.20;99.90
5631;DHT22;2837;50.990;7.124;2022-07-10T20:03:40;19.20;99.90
5631;DHT22;2837;50.990;7.124;2022-07-10T20:06:05;19.20;99.90
5631;DHT22;2837;50.990;7.124;2022-07-10T20:08:31;19.20;99.90
5631;DHT22;2837;50.990;7.124;2022-07-10T20:10:56;19.20;99.90
5631;DHT22;2837;50.990;7.124;2022-07-10T20:13:22;19.10;99.90
5631;DHT22;2837;50.990;7.124;2022-07-10T20:15:48;19.10;99.90
5631;DHT22;2837;50.990;7.124;2022-07-10T20:18:14;19.10;99.90
5631;DHT22;2837;50.990;7.124;2022-07-10T20:20:40;19.10;99.90
5631;DHT22;2837;50.990;7.124;2022-07-10T20:23:06;19.10;99.90
5631;DHT22;2837;50.990;7.124;2022-07-10T20:25:31;19.10;99.90
5631;DHT22;2837;50.990;7.124;2022-07-10T20:27:57;19.10;99.90
5631;DHT22;2837;50.990;7.124;2022-07-10T20:30:22;19.10;99.90
5631;DHT22;2837;50.990;7.124;2022-07-10T20:32:48;19.10;99.90
5631;DHT22;2837;50.990;7.124;2022-07-10T20:35:13;19.10;99.90
5631;DHT22;2837;50.990;7.124;2022-07-10T20:37:39;19.10;99.90
5631;DHT22;2837;50.990;7.124;2022-07-10T20:40:07;19.10;99.90
5631;DHT22;2837;50.990;7.124;2022-07-10T20:42:33;19.10;99.90
5631;DHT22;2837;50.990;7.124;2022-07-10T20:44:58;19.10;99.90
5631;DHT22;2837;50.990;7.124;2022-07-10T20:47:24;19.10;99.90
5631;DHT22;2837;50.990;7.124;2022-07-10T20:49:50;19.10;99.90
5631;DHT22;2837;50.990;7.124;2022-07-10T20:52:15;19.10;99.90
5631;DHT22;2837;50.990;7.124;2022-07-10T20:54:41;19.10;99.90
5631;DHT22;2837;50.990;7.124;2022-07-10T20:57:06;19.00;99.90
5631;DHT22;2837;50.990;7.124;2022-07-10T20:59:32;19.10;99.90
